Details for UPS at ZGSZ




Go Back


Latest METAR
Local Time

ZGSZ 180600Z 19004MPS 9999 FEW020 31/27 Q1001 NOSIG
18/08/2018, 14:27:16

Description
Results
UPS Logo
Number of Pilots based at ZGSZ
0 Pilots Based here
Number of UPS Flights Departed from ZGSZ
0 Flights Departed
Number of UPS Flights Arrived at ZGSZ
0 Flights Arrived
Number of UPS Schedules Departing from ZGSZ
43 Schedules
Number of UPS Schedules Arriving at ZGSZ
36 Schedules
Number of UPS Schedules Departing from ZGSZ availible today
5 Schedules Today
Number of UPS Schedules Arriving at ZGSZ availible today
5 Schedules Today
Average Landing Rate at ZGSZ
0 fpm
UPS Average Landing Rate at ZGSZ
0 fpm
Total Fuel Purchased at ZGSZ by UPS
0.00 kgs / 0.00 lbs

Pilots Based at ZGSZ


Pilot ID
Pilot Name
Pilot Rank
No. of Flights
No. of Flying Hours
There are no pilots assigned to this hub!   Will you be the first?
Content